Main page
METAR-TAF:

METAR-TAF

Airports :

Lee C. Fine Memorial Airport

Kaiser Lake Ozark, Missouri, United States

latitude: 38-06N, longitude: 092-33W, elevation: 869 ft

Current weather observation

The report was made 44 minutes ago, at 05:56 UTC
Wind 3 mph from the Southeast
Temperature 73°F
Humidity 89%
Pressure 30.23 in. Hg
Visibility: 10 miles
Clear sky

METAR: KAIZ 200556Z AUTO 13003KT 10SM CLR 23/21 A3023 RMK AO2 SLP227 6//// T02280211 10294 20222 403170211 51007 PNO $

Time: 01:40 (06:40 UTC)


TAF: missing

Weather observations and forecasts of more than 4000 airports (METAR and TAF reports).

The available stations are represented by yellow and red dots on the map.

Hover mouse over dot to see the name of the station.

Then click to see weather observations and forecasts.

To change the map : click on the green buttons with a black cross to zoom in, on the green button with a dash to zoom out, or on the green arrows for adjacent maps.


METAR-TAF: